Time;durP1;ratioP1;P1;durP2;ratioP2;P2;SDS_P1;SDS_P2;PMS_P1;PMS_P2;Temp;Humidity;BMP_temperature;BMP_pressure;BME280_temperature;BME280_humidity;BME280_pressure;Samples;Min_cycle;Max_cycle;Signal;HPM_P1;HPM_P2
2022/08/05 00:01:21;;;;;;;2.60;2.40;;;;;;;23.32;51.14;98268.84;4994244;28;20178;-62
2022/08/05 00:03:48;;;;;;;2.78;2.67;;;;;;;23.32;51.39;98279.41;4994383;28;20641;-62
2022/08/05 00:06:15;;;;;;;2.90;2.80;;;;;;;23.22;51.41;98274.44;4994184;28;20253;-63
2022/08/05 00:08:41;;;;;;;3.17;2.95;;;;;;;23.20;51.84;98280.91;4994124;28;20171;-61
2022/08/05 00:11:13;;;;;;;3.83;2.53;;;;;;;23.14;52.34;98273.69;4994167;28;20202;-62
2022/08/05 00:13:40;;;;;;;3.20;2.50;;;;;;;23.12;52.62;98278.31;4993964;28;20174;-61
2022/08/05 00:16:08;;;;;;;2.90;2.70;;;;;;;23.05;52.84;98261.59;4993968;28;20175;-63
2022/08/05 00:18:33;;;;;;;2.75;2.38;;;;;;;23.11;53.32;98271.41;4993873;28;20171;-61
2022/08/05 00:20:59;;;;;;;2.85;2.50;;;;;;;23.06;53.99;98263.22;4993907;28;20294;-62
2022/08/05 00:23:24;;;;;;;3.15;2.63;;;;;;;23.01;54.08;98265.63;4993382;28;20191;-61
2022/08/05 00:25:50;;;;;;;2.80;2.60;;;;;;;23.05;53.07;98267.72;4993769;28;20266;-61
2022/08/05 00:28:16;;;;;;;2.80;2.60;;;;;;;23.01;53.19;98265.63;4993833;28;20179;-61
2022/08/05 00:30:42;;;;;;;3.13;2.88;;;;;;;23.11;52.51;98266.13;4993613;28;20417;-61
2022/08/05 00:33:08;;;;;;;2.47;2.28;;;;;;;23.04;52.35;98265.25;4993580;28;20704;-61
2022/08/05 00:35:33;;;;;;;2.63;2.45;;;;;;;23.01;52.50;98265.63;4993599;28;20238;-61
2022/08/05 00:37:59;;;;;;;3.97;2.70;;;;;;;22.90;52.83;98248.44;4993615;28;20254;-61
2022/08/05 00:40:26;;;;;;;2.95;2.67;;;;;;;22.92;53.44;98261.47;4993536;28;20274;-61
2022/08/05 00:42:51;;;;;;;2.97;2.78;;;;;;;22.85;54.06;98265.84;4992247;28;20245;-61
2022/08/05 00:45:17;;;;;;;2.83;2.67;;;;;;;22.83;54.36;98263.38;4993443;28;20641;-61
2022/08/05 00:47:43;;;;;;;2.58;2.47;;;;;;;22.90;54.24;98252.94;4993671;28;20711;-63
2022/08/05 00:50:09;;;;;;;5.60;2.67;;;;;;;22.90;54.24;98255.56;4993290;28;20175;-63
2022/08/05 00:52:35;;;;;;;2.95;2.75;;;;;;;22.78;54.47;98246.50;4993286;28;20653;-62
2022/08/05 00:55:01;;;;;;;2.75;2.60;;;;;;;22.78;54.88;98249.13;4992023;28;20683;-63
2022/08/05 00:57:26;;;;;;;2.95;2.75;;;;;;;22.68;56.06;98243.31;4993239;28;20179;-62
2022/08/05 00:59:51;;;;;;;3.63;2.72;;;;;;;22.67;55.88;98247.78;4993416;28;20266;-63
2022/08/05 01:02:17;;;;;;;2.70;2.50;;;;;;;22.67;55.59;98245.13;4993177;28;20273;-61
2022/08/05 01:04:43;;;;;;;3.17;2.90;;;;;;;22.62;55.70;98238.78;4991868;28;20175;-61
2022/08/05 01:07:08;;;;;;;3.35;2.83;;;;;;;22.73;55.33;98252.31;4991780;28;20214;-62
2022/08/05 01:09:34;;;;;;;3.05;2.85;;;;;;;22.81;55.38;98254.03;4993441;28;20198;-61
2022/08/05 01:12:05;;;;;;;2.60;2.50;;;;;;;22.81;54.95;98251.38;4992930;28;20230;-61
2022/08/05 01:14:34;;;;;;;2.70;2.60;;;;;;;22.68;54.36;98248.59;4993034;28;20168;-61
2022/08/05 01:17:07;;;;;;;2.90;2.70;;;;;;;22.65;54.17;98243.69;4993192;28;20233;-61
2022/08/05 01:19:33;;;;;;;2.70;2.50;;;;;;;22.64;53.95;98248.16;4991636;28;20210;-61
2022/08/05 01:22:21;;;;;;;3.20;2.67;;;;;;;22.60;54.24;98246.88;5007977;28;20207;-62
2022/08/05 01:24:53;;;;;;;2.50;2.40;;;;;;;22.57;54.57;98247.25;4992876;28;20190;-61
2022/08/05 01:27:31;;;;;;;2.50;2.40;;;;;;;22.61;55.41;98243.22;4992808;28;20166;-61
2022/08/05 01:30:02;;;;;;;3.60;2.60;;;;;;;22.57;55.68;98254.34;4992784;28;20177;-61
2022/08/05 01:32:32;;;;;;;2.83;2.60;;;;;;;22.57;55.36;98255.16;4992505;28;20245;-61
2022/08/05 01:35:01;;;;;;;2.92;2.72;;;;;;;22.49;55.78;98241.25;4992145;28;20563;-62
2022/08/05 01:37:38;;;;;;;3.58;2.45;;;;;;;22.43;56.64;98249.88;4992598;28;20175;-61
2022/08/05 01:40:05;;;;;;;3.30;2.78;;;;;;;22.37;57.65;98247.97;4992647;28;20714;-61
2022/08/05 01:42:33;;;;;;;3.33;2.38;;;;;;;22.44;56.50;98248.91;4992886;28;20171;-61
2022/08/05 01:45:00;;;;;;;3.10;2.80;;;;;;;22.46;56.90;98257.44;4992596;28;20203;-61
2022/08/05 01:47:29;;;;;;;3.13;2.83;;;;;;;22.46;56.34;98252.16;4992618;28;20248;-61
2022/08/05 01:49:56;;;;;;;2.80;2.60;;;;;;;22.37;55.90;98237.44;4992557;28;20201;-61
2022/08/05 01:52:23;;;;;;;2.95;2.75;;;;;;;22.49;56.01;98246.53;4992500;28;20215;-61
2022/08/05 01:54:52;;;;;;;3.33;3.03;;;;;;;22.40;55.92;98248.41;4992547;28;20660;-61
2022/08/05 01:57:24;;;;;;;3.60;2.83;;;;;;;22.34;55.62;98237.78;4992502;28;20173;-63
2022/08/05 01:59:53;;;;;;;2.75;2.55;;;;;;;22.46;55.18;98241.63;4992657;28;20155;-62
2022/08/05 02:02:20;;;;;;;2.92;2.72;;;;;;;22.48;55.18;98252.78;4992443;28;20168;-61
2022/08/05 02:04:48;;;;;;;4.43;2.40;;;;;;;22.51;56.19;98248.00;4992743;28;20183;-61
2022/08/05 02:07:14;;;;;;;3.05;2.85;;;;;;;22.41;55.50;98241.31;4993451;28;20186;-61
2022/08/05 02:09:40;;;;;;;3.17;2.97;;;;;;;22.47;56.21;98245.88;4992731;28;20175;-61
2022/08/05 02:12:11;;;;;;;3.88;2.75;;;;;;;22.49;55.75;98252.63;4992330;28;20575;-61
2022/08/05 02:14:43;;;;;;;6.72;3.05;;;;;;;22.38;55.97;98254.88;4992463;28;20172;-61
2022/08/05 02:17:18;;;;;;;3.53;3.15;;;;;;;22.27;57.04;98250.06;4992596;28;20170;-61
2022/08/05 02:19:51;;;;;;;3.22;2.90;;;;;;;22.26;58.37;98248.44;4992630;28;20159;-62
2022/08/05 02:22:35;;;;;;;2.97;2.78;;;;;;;22.21;58.28;98242.88;4992599;28;20152;-61
2022/08/05 02:25:25;;;;;;;5.47;2.63;;;;;;;22.29;57.56;98251.50;4992279;28;20167;-61
2022/08/05 02:27:52;;;;;;;3.05;2.70;;;;;;;22.31;57.86;98248.69;4992526;28;20195;-61
2022/08/05 02:30:18;;;;;;;3.78;2.85;;;;;;;22.36;58.58;98251.59;4992467;28;20176;-62
2022/08/05 02:32:49;;;;;;;3.13;2.92;;;;;;;22.29;57.94;98232.22;4990670;28;20226;-61
2022/08/05 02:35:19;;;;;;;4.43;2.85;;;;;;;22.38;57.96;98242.50;4992765;28;20160;-61
2022/08/05 02:37:45;;;;;;;2.80;2.60;;;;;;;22.32;57.17;98248.50;4992363;28;20253;-61
2022/08/05 02:40:11;;;;;;;2.95;2.75;;;;;;;22.33;56.59;98241.41;4992175;28;20254;-61
2022/08/05 02:42:38;;;;;;;3.13;2.85;;;;;;;22.14;57.01;98236.69;4992702;28;20175;-61
2022/08/05 02:45:06;;;;;;;2.83;2.63;;;;;;;22.00;58.00;98237.50;4993044;28;20230;-61
2022/08/05 02:47:34;;;;;;;3.67;2.95;;;;;;;21.95;58.97;98245.13;4995615;28;20179;-61
2022/08/05 02:50:00;;;;;;;3.13;2.92;;;;;;;21.92;59.04;98235.75;4995834;28;20262;-61
2022/08/05 02:52:26;;;;;;;2.72;2.63;;;;;;;21.94;59.20;98244.31;4995496;28;20195;-61
2022/08/05 02:54:53;;;;;;;2.97;2.67;;;;;;;21.93;59.53;98234.78;4994288;28;20237;-61
2022/08/05 02:57:21;;;;;;;3.03;2.83;;;;;;;21.90;59.42;98236.94;4995502;28;20179;-61
2022/08/05 02:59:49;;;;;;;4.18;2.83;;;;;;;21.98;58.93;98242.13;4995667;28;20610;-61
2022/08/05 03:02:19;;;;;;;3.40;3.17;;;;;;;21.90;59.44;98243.03;4995338;28;20560;-61
2022/08/05 03:04:46;;;;;;;3.17;2.97;;;;;;;21.98;58.99;98247.41;4995358;28;20712;-61
2022/08/05 03:07:12;;;;;;;3.20;2.85;;;;;;;21.94;59.55;98248.75;4995506;28;20210;-61
2022/08/05 03:09:41;;;;;;;5.32;2.88;;;;;;;22.02;59.96;98246.06;4995262;28;20175;-61
2022/08/05 03:12:07;;;;;;;7.53;3.42;;;;;;;22.10;58.98;98251.22;4995127;28;20199;-62
2022/08/05 03:14:32;;;;;;;2.97;2.78;;;;;;;22.16;58.23;98245.22;4995359;28;20194;-61
2022/08/05 03:16:58;;;;;;;3.10;2.80;;;;;;;22.05;57.75;98240.41;4995135;28;20171;-61
2022/08/05 03:19:23;;;;;;;2.80;2.60;;;;;;;22.09;58.02;98246.97;4995304;28;20171;-61
2022/08/05 03:21:49;;;;;;;4.22;3.20;;;;;;;21.98;58.36;98250.03;4995039;28;20206;-61
2022/08/05 03:24:15;;;;;;;3.70;3.10;;;;;;;21.93;58.09;98241.84;4995284;28;20172;-62
2022/08/05 03:26:41;;;;;;;3.65;2.97;;;;;;;21.94;58.82;98249.59;4994818;28;20722;-61
2022/08/05 03:29:06;;;;;;;3.15;2.95;;;;;;;21.86;59.25;98247.00;4995136;28;20174;-61
2022/08/05 03:31:32;;;;;;;2.90;2.70;;;;;;;21.84;59.12;98245.56;4994784;28;20584;-62
2022/08/05 03:33:58;;;;;;;2.83;2.63;;;;;;;21.81;58.56;98243.28;4994666;28;20305;-63
2022/08/05 03:36:24;;;;;;;3.25;3.03;;;;;;;21.65;59.03;98238.97;4994696;28;20171;-62
2022/08/05 03:38:49;;;;;;;4.50;2.90;;;;;;;21.69;60.21;98245.53;4994741;28;20179;-61
2022/08/05 03:41:16;;;;;;;2.90;2.70;;;;;;;21.63;61.22;98245.41;4994709;28;20168;-61
2022/08/05 03:43:42;;;;;;;3.42;3.13;;;;;;;21.60;61.65;98251.00;4994689;28;20171;-63
2022/08/05 03:46:07;;;;;;;2.97;2.78;;;;;;;21.67;61.57;98244.88;4994863;28;20193;-62
2022/08/05 03:48:33;;;;;;;3.33;3.03;;;;;;;21.76;61.28;98248.28;4994515;28;20636;-62
2022/08/05 03:51:23;;;;;;;8.25;3.17;;;;;;;21.85;60.72;98239.31;4994432;28;20178;-62
2022/08/05 03:54:16;;;;;;;3.17;2.97;;;;;;;22.02;59.58;98240.78;4994555;28;20163;-62
2022/08/05 03:56:45;;;;;;;3.15;2.85;;;;;;;22.14;58.83;98241.97;4993551;28;20210;-61
2022/08/05 03:59:24;;;;;;;6.28;2.88;;;;;;;22.09;59.47;98233.78;4994346;28;20262;-61
2022/08/05 04:01:54;;;;;;;5.13;3.17;;;;;;;22.13;59.42;98235.03;4994559;28;20151;-61
2022/08/05 04:04:20;;;;;;;5.30;3.25;;;;;;;22.28;58.71;98235.88;4994525;28;20230;-61
2022/08/05 04:06:47;;;;;;;3.22;3.03;;;;;;;22.18;58.86;98243.22;4994194;28;20175;-61
2022/08/05 04:09:14;;;;;;;3.55;3.33;;;;;;;22.32;59.00;98243.22;4994157;28;20183;-61
2022/08/05 04:11:40;;;;;;;4.32;3.05;;;;;;;22.34;59.48;98235.13;4993982;28;20286;-62
2022/08/05 04:14:06;;;;;;;4.25;3.05;;;;;;;22.28;59.65;98226.16;4994023;28;20261;-62
2022/08/05 04:16:34;;;;;;;3.67;3.00;;;;;;;22.44;58.75;98247.06;4993986;28;20211;-61
2022/08/05 04:18:59;;;;;;;4.00;3.38;;;;;;;22.42;58.92;98238.50;4994220;28;20175;-61
2022/08/05 04:21:25;;;;;;;4.50;3.30;;;;;;;22.41;59.58;98230.75;4993876;28;20175;-61
2022/08/05 04:23:50;;;;;;;3.42;3.13;;;;;;;22.48;58.75;98231.69;4993850;28;20198;-60
2022/08/05 04:26:16;;;;;;;3.65;3.33;;;;;;;22.56;57.98;98234.25;4993775;28;20171;-61
2022/08/05 04:28:41;;;;;;;3.67;3.40;;;;;;;22.58;58.20;98229.59;4994013;28;20562;-62
2022/08/05 04:31:07;;;;;;;6.88;2.72;;;;;;;22.60;57.76;98224.97;4994498;28;20191;-61
2022/08/05 04:33:32;;;;;;;3.13;2.92;;;;;;;22.68;58.37;98227.50;4994200;28;20258;-61
2022/08/05 04:35:58;;;;;;;4.43;3.45;;;;;;;22.77;58.26;98226.38;4993872;28;20171;-62
2022/08/05 04:38:23;;;;;;;3.33;3.13;;;;;;;22.89;57.76;98224.91;4993587;28;20199;-61
2022/08/05 04:40:49;;;;;;;3.28;2.72;;;;;;;22.93;57.61;98216.44;4993546;28;20182;-61
2022/08/05 04:43:14;;;;;;;3.25;3.00;;;;;;;23.00;56.96;98221.75;4993529;28;20179;-61
2022/08/05 04:45:41;;;;;;;4.30;2.88;;;;;;;23.04;57.40;98238.84;4993671;28;20218;-61
2022/08/05 04:48:09;;;;;;;3.58;2.85;;;;;;;23.01;56.92;98236.59;4993294;28;20628;-61
2022/08/05 04:50:46;;;;;;;3.25;3.00;;;;;;;22.95;57.47;98238.16;4993357;28;20184;-61
2022/08/05 04:53:13;;;;;;;3.83;3.10;;;;;;;22.91;56.58;98236.88;4993428;28;20195;-61
2022/08/05 04:55:39;;;;;;;4.35;3.40;;;;;;;22.92;56.80;98232.44;4993334;28;20179;-61
2022/08/05 04:58:07;;;;;;;5.53;3.28;;;;;;;22.85;57.23;98236.81;4993173;28;20602;-61
2022/08/05 05:00:33;;;;;;;3.20;3.00;;;;;;;22.88;56.95;98223.25;4993165;28;20182;-61
2022/08/05 05:02:59;;;;;;;12.27;4.65;;;;;;;22.93;59.57;98231.44;4993150;28;20179;-61
2022/08/05 05:05:25;;;;;;;4.90;3.47;;;;;;;22.87;58.63;98227.72;4993105;28;20185;-61
2022/08/05 05:07:50;;;;;;;4.78;4.28;;;;;;;22.95;59.58;98234.72;4993005;28;20241;-61
2022/08/05 05:10:16;;;;;;;4.97;3.75;;;;;;;23.07;58.93;98235.84;4993033;28;20180;-61
2022/08/05 05:12:42;;;;;;;3.65;2.95;;;;;;;23.21;57.36;98232.38;4993025;28;20413;-61
2022/08/05 05:15:08;;;;;;;3.72;3.20;;;;;;;23.29;56.51;98230.41;4993238;28;20269;-61
2022/08/05 05:17:39;;;;;;;3.78;2.97;;;;;;;23.36;56.35;98230.50;4993170;28;20179;-61
2022/08/05 05:20:06;;;;;;;2.83;2.72;;;;;;;23.33;56.55;98230.84;4993190;28;20542;-61
2022/08/05 05:22:31;;;;;;;3.75;3.45;;;;;;;23.47;56.40;98224.66;4993041;28;20185;-61
2022/08/05 05:24:57;;;;;;;4.68;3.30;;;;;;;23.61;57.07;98231.72;4993068;28;20179;-61
2022/08/05 05:27:22;;;;;;;4.05;3.00;;;;;;;23.68;57.08;98231.56;4992787;28;20612;-61
2022/08/05 05:29:47;;;;;;;4.20;3.13;;;;;;;23.83;56.59;98229.66;4993083;28;20185;-61
2022/08/05 05:32:13;;;;;;;3.25;3.05;;;;;;;24.06;56.93;98226.00;4992505;28;20350;-60
2022/08/05 05:34:38;;;;;;;6.85;4.75;;;;;;;24.24;56.59;98233.22;4992857;28;20186;-62
2022/08/05 05:37:04;;;;;;;9.70;5.28;;;;;;;24.24;56.75;98222.63;4992548;28;20178;-61
2022/08/05 05:39:29;;;;;;;10.68;4.85;;;;;;;24.39;56.05;98230.44;4992669;28;20175;-61
2022/08/05 05:41:55;;;;;;;3.90;3.53;;;;;;;24.52;54.63;98233.97;4992660;28;20174;-61
2022/08/05 05:44:20;;;;;;;5.70;3.60;;;;;;;24.51;55.12;98237.63;4992844;28;20179;-61
2022/08/05 05:46:45;;;;;;;3.80;3.50;;;;;;;24.69;53.81;98229.19;4992781;28;20175;-62
2022/08/05 05:49:11;;;;;;;3.50;3.28;;;;;;;24.69;53.04;98229.19;4993034;28;20182;-61
2022/08/05 05:51:36;;;;;;;3.50;3.28;;;;;;;24.83;53.51;98229.03;4992458;28;20285;-61
2022/08/05 05:54:02;;;;;;;4.00;3.45;;;;;;;24.97;53.18;98230.69;4992696;28;20187;-61
2022/08/05 05:56:28;;;;;;;3.70;3.45;;;;;;;25.09;52.10;98237.03;4992734;28;20266;-61
2022/08/05 05:58:54;;;;;;;3.92;3.60;;;;;;;25.17;52.38;98239.50;5007543;28;20542;-61
2022/08/05 06:01:19;;;;;;;7.30;4.13;;;;;;;25.26;53.32;98248.13;4992401;28;20179;-61
2022/08/05 06:03:45;;;;;;;8.95;4.25;;;;;;;25.44;52.53;98238.56;4992708;28;20171;-62
2022/08/05 06:06:10;;;;;;;7.43;4.28;;;;;;;25.62;52.29;98244.09;4992479;28;20258;-63
2022/08/05 06:08:35;;;;;;;5.95;4.43;;;;;;;25.63;50.71;98223.69;4992641;28;20185;-62
2022/08/05 06:11:01;;;;;;;5.75;4.07;;;;;;;25.87;51.06;98242.44;4991066;28;20733;-61
2022/08/05 06:13:26;;;;;;;5.25;4.53;;;;;;;25.96;51.92;98235.91;4992606;28;20624;-61
2022/08/05 06:15:52;;;;;;;18.50;4.57;;;;;;;26.11;51.59;98248.94;4991100;28;20188;-61
2022/08/05 06:18:17;;;;;;;5.30;3.70;;;;;;;26.23;50.23;98242.81;4992343;28;20259;-61
2022/08/05 06:20:43;;;;;;;4.97;4.35;;;;;;;26.31;49.97;98245.25;4994090;28;20163;-62
2022/08/05 06:23:08;;;;;;;6.35;4.50;;;;;;;26.44;50.16;98249.72;4996108;28;20171;-62
2022/08/05 06:25:33;;;;;;;6.50;4.00;;;;;;;26.47;49.61;98244.00;4996049;28;20186;-61
2022/08/05 06:27:59;;;;;;;7.85;4.22;;;;;;;26.52;50.11;98242.34;4996327;28;20169;-62
2022/08/05 06:30:25;;;;;;;5.60;4.30;;;;;;;26.46;49.55;98223.75;4996030;28;20669;-62
2022/08/05 06:32:51;;;;;;;5.47;4.20;;;;;;;26.64;49.93;98253.16;4995774;28;20235;-62
2022/08/05 06:35:18;;;;;;;4.30;3.30;;;;;;;26.60;48.67;98244.78;4995930;28;20230;-62
2022/08/05 06:37:43;;;;;;;3.38;3.10;;;;;;;26.66;48.58;98251.09;4995788;28;20210;-63
2022/08/05 06:40:09;;;;;;;3.33;3.05;;;;;;;26.74;49.02;98257.00;4995964;28;20210;-61
2022/08/05 06:42:36;;;;;;;6.82;3.60;;;;;;;26.68;48.63;98255.19;4995705;28;20167;-60
2022/08/05 06:45:01;;;;;;;4.20;3.75;;;;;;;26.75;48.71;98248.00;4995750;28;20175;-63
2022/08/05 06:47:27;;;;;;;6.10;4.00;;;;;;;26.91;48.13;98247.53;4995805;28;20657;-63
2022/08/05 06:49:52;;;;;;;6.40;4.15;;;;;;;27.02;47.87;98252.16;4994382;28;20179;-63
2022/08/05 06:52:18;;;;;;;5.45;3.70;;;;;;;27.11;48.30;98252.72;4995541;28;20760;-63
2022/08/05 06:54:43;;;;;;;5.07;3.85;;;;;;;27.23;47.96;98249.19;4995752;28;20175;-62
2022/08/05 06:57:10;;;;;;;7.80;4.43;;;;;;;27.40;47.54;98258.28;4995554;28;20175;-63
2022/08/05 06:59:36;;;;;;;4.88;4.45;;;;;;;27.55;47.16;98250.00;4995775;28;20170;-62
2022/08/05 07:02:01;;;;;;;4.30;3.90;;;;;;;27.53;46.83;98244.91;4995396;28;20241;-64
2022/08/05 07:04:27;;;;;;;5.93;4.45;;;;;;;27.64;46.72;98249.53;4995396;28;20266;-63
2022/08/05 07:06:52;;;;;;;9.93;4.80;;;;;;;27.71;45.80;98252.97;4995399;28;20179;-62
2022/08/05 07:09:18;;;;;;;8.93;4.28;;;;;;;27.80;46.32;98248.19;4995459;28;20174;-63
2022/08/05 07:11:43;;;;;;;5.07;4.47;;;;;;;27.87;46.10;98251.63;4995223;28;20211;-63
2022/08/05 07:16:58;;;;;;;7.13;4.35;;;;;;;28.03;46.20;98249.22;4995199;28;20190;-64
2022/08/05 07:19:24;;;;;;;5.85;4.43;;;;;;;28.12;46.55;98253.25;4995449;28;20159;-63
2022/08/05 07:21:50;;;;;;;7.25;4.85;;;;;;;28.15;46.51;98246.66;4995039;28;20246;-63
2022/08/05 07:24:16;;;;;;;9.45;4.68;;;;;;;28.27;46.24;98251.03;4995049;28;20195;-63
2022/08/05 07:26:43;;;;;;;6.47;4.03;;;;;;;28.38;46.64;98252.16;4994958;28;20175;-63
2022/08/05 07:29:09;;;;;;;4.55;4.15;;;;;;;28.43;46.09;98250.50;4994951;28;20692;-63
2022/08/05 07:31:34;;;;;;;9.57;4.68;;;;;;;28.50;45.54;98245.91;4993814;28;20222;-63
2022/08/05 07:34:00;;;;;;;6.20;3.85;;;;;;;28.60;45.41;98253.34;4994662;28;20214;-62
2022/08/05 07:36:26;;;;;;;16.65;4.55;;;;;;;28.62;45.80;98244.13;4995605;28;20187;-63
2022/08/05 07:38:51;;;;;;;7.07;4.50;;;;;;;28.72;45.91;98249.75;4995011;28;20203;-63
2022/08/05 07:41:19;;;;;;;6.78;4.40;;;;;;;28.79;46.22;98245.13;4994741;28;20562;-63
2022/08/05 07:43:44;;;;;;;4.80;3.92;;;;;;;28.89;45.18;98248.09;4994676;28;20182;-63
2022/08/05 07:46:10;;;;;;;6.55;4.53;;;;;;;28.97;44.64;98239.00;4993379;28;20179;-63
2022/08/05 07:48:36;;;;;;;5.82;4.22;;;;;;;29.06;45.10;98245.63;4993369;28;20171;-63
2022/08/05 07:51:01;;;;;;;6.40;4.30;;;;;;;29.08;44.32;98247.03;4994463;28;20175;-63
2022/08/05 07:53:27;;;;;;;11.07;4.95;;;;;;;29.17;44.61;98243.03;4993624;28;20183;-63
2022/08/05 07:55:52;;;;;;;5.45;4.15;;;;;;;29.22;44.45;98240.47;4994472;28;20190;-63
2022/08/05 07:58:17;;;;;;;4.18;3.85;;;;;;;29.30;44.19;98245.50;4994370;28;20664;-63
2022/08/05 08:00:43;;;;;;;8.00;4.18;;;;;;;29.31;44.51;98236.47;4994891;28;20189;-62
2022/08/05 08:03:11;;;;;;;3.97;3.67;;;;;;;29.43;43.93;98242.63;4994285;28;20202;-62
2022/08/05 08:05:42;;;;;;;4.53;4.10;;;;;;;29.55;43.93;98240.84;4993115;28;20267;-61
2022/08/05 08:08:12;;;;;;;4.45;4.07;;;;;;;29.68;43.49;98239.81;4994247;28;20167;-60
2022/08/05 08:10:38;;;;;;;6.55;4.00;;;;;;;29.77;43.93;98239.25;4994158;28;20621;-61
2022/08/05 08:13:04;;;;;;;5.65;3.95;;;;;;;29.87;43.28;98239.50;4994682;28;20302;-60
2022/08/05 08:15:30;;;;;;;6.95;4.35;;;;;;;29.94;42.67;98229.53;4994065;28;20183;-61
2022/08/05 08:17:55;;;;;;;8.48;3.75;;;;;;;29.94;42.66;98239.38;4994230;28;20664;-62
2022/08/05 08:20:22;;;;;;;6.50;3.67;;;;;;;30.01;42.83;98238.22;4994163;28;20186;-62
2022/08/05 08:23:06;;;;;;;6.65;3.67;;;;;;;30.08;42.35;98240.78;4994203;28;20202;-62
2022/08/05 08:25:32;;;;;;;5.03;3.70;;;;;;;30.06;41.98;98243.66;4994147;28;20186;-63
2022/08/05 08:27:58;;;;;;;6.40;3.60;;;;;;;30.09;42.02;98240.56;4994019;28;20649;-63
2022/08/05 08:30:23;;;;;;;4.85;3.33;;;;;;;30.13;41.47;98233.72;4994033;28;20178;-62
2022/08/05 08:32:49;;;;;;;4.82;3.28;;;;;;;30.18;40.78;98241.00;4993605;28;20752;-62
2022/08/05 08:35:14;;;;;;;6.22;3.35;;;;;;;30.25;39.59;98236.38;4993689;28;20559;-63
2022/08/05 08:37:40;;;;;;;3.22;3.03;;;;;;;30.26;39.39;98236.13;4993630;28;20171;-63
2022/08/05 08:40:06;;;;;;;3.08;2.67;;;;;;;30.30;36.97;98237.31;4993636;28;20645;-63
2022/08/05 08:42:32;;;;;;;2.78;2.47;;;;;;;30.32;35.62;98227.19;4993380;28;20175;-62
2022/08/05 08:44:59;;;;;;;2.60;2.50;;;;;;;30.36;36.18;98231.03;4992525;28;20187;-61
2022/08/05 08:47:26;;;;;;;2.60;2.40;;;;;;;30.36;36.42;98231.03;4993776;28;20186;-63
2022/08/05 08:49:54;;;;;;;3.20;1.83;;;;;;;30.51;35.30;98235.88;4993517;28;20182;-62
2022/08/05 08:52:24;;;;;;;2.50;2.28;;;;;;;30.47;34.88;98224.84;4993360;28;20560;-63
2022/08/05 08:54:53;;;;;;;4.47;2.17;;;;;;;30.61;34.74;98226.19;4993654;28;20229;-63
2022/08/05 08:57:19;;;;;;;5.00;2.67;;;;;;;30.68;35.75;98221.59;4993323;28;20560;-62
2022/08/05 08:59:45;;;;;;;8.13;2.50;;;;;;;30.75;35.71;98224.09;4993279;28;20190;-62
2022/08/05 09:02:10;;;;;;;3.90;2.40;;;;;;;30.84;35.70;98226.16;4993211;28;20179;-62
2022/08/05 09:04:36;;;;;;;5.80;3.00;;;;;;;30.89;35.88;98228.94;4993239;28;20271;-61
2022/08/05 09:07:06;;;;;;;3.22;2.70;;;;;;;30.92;35.43;98223.13;4993209;28;20275;-61
2022/08/05 09:09:33;;;;;;;6.10;2.67;;;;;;;30.97;35.80;98225.91;4991887;28;20238;-62
2022/08/05 09:12:00;;;;;;;5.55;2.65;;;;;;;31.02;35.34;98222.50;4993020;28;20209;-61
2022/08/05 09:14:26;;;;;;;5.28;2.95;;;;;;;30.85;34.86;98195.72;4991659;28;20183;-63
2022/08/05 09:16:51;;;;;;;3.88;3.47;;;;;;;30.96;35.36;98204.75;4992885;28;20237;-62
2022/08/05 09:19:17;;;;;;;4.35;2.70;;;;;;;31.02;34.89;98196.56;4992994;28;20218;-63
2022/08/05 09:21:42;;;;;;;4.55;2.78;;;;;;;31.10;35.29;98198.06;4992990;28;20269;-62
2022/08/05 09:24:08;;;;;;;4.20;2.60;;;;;;;31.13;34.38;98193.03;4993138;28;20313;-63
2022/08/05 09:26:35;;;;;;;3.40;2.30;;;;;;;31.18;33.98;98195.84;4992814;28;20182;-63
2022/08/05 09:29:04;;;;;;;2.58;2.20;;;;;;;31.27;33.96;98190.91;4993099;28;20186;-63
2022/08/05 09:31:31;;;;;;;2.65;2.50;;;;;;;31.27;34.72;98194.41;4992862;28;20203;-63
2022/08/05 09:34:02;;;;;;;3.63;2.67;;;;;;;31.25;34.42;98185.78;4992606;28;20222;-63
2022/08/05 09:36:37;;;;;;;4.15;3.17;;;;;;;31.28;35.02;98190.66;4993081;28;20222;-63
2022/08/05 09:39:06;;;;;;;2.90;2.70;;;;;;;31.40;35.19;98183.38;4992700;28;20182;-62
2022/08/05 09:41:31;;;;;;;4.97;2.80;;;;;;;31.40;34.63;98180.69;4993281;28;20167;-63
2022/08/05 09:43:56;;;;;;;3.25;2.70;;;;;;;31.32;34.77;98170.41;4991416;28;20196;-63
2022/08/05 09:46:28;;;;;;;3.97;2.67;;;;;;;31.41;34.19;98181.53;4992648;28;20178;-62
2022/08/05 09:48:54;;;;;;;6.95;2.30;;;;;;;31.49;34.17;98175.75;4992786;28;20663;-62
2022/08/05 09:51:40;;;;;;;3.90;2.90;;;;;;;31.62;33.91;98180.78;4992475;28;20207;-62
2022/08/05 09:54:07;;;;;;;5.60;2.40;;;;;;;31.73;33.14;98172.72;4992722;28;20187;-63
2022/08/05 09:56:37;;;;;;;2.90;2.63;;;;;;;31.68;33.95;98169.94;4995832;28;20179;-63
2022/08/05 09:59:05;;;;;;;2.55;2.33;;;;;;;31.71;33.40;98171.31;4995380;28;20277;-63
2022/08/05 10:01:32;;;;;;;2.63;2.10;;;;;;;31.82;33.66;98173.91;4995251;28;20175;-62
2022/08/05 10:04:04;;;;;;;3.53;2.42;;;;;;;31.90;33.43;98161.97;4996794;28;20178;-62
2022/08/05 10:06:31;;;;;;;4.30;2.88;;;;;;;32.02;33.11;98176.06;4996890;28;20233;-62
2022/08/05 10:09:14;;;;;;;4.18;3.53;;;;;;;32.12;32.55;98177.00;4996424;28;20566;-62
2022/08/05 10:11:41;;;;;;;3.03;2.80;;;;;;;32.26;32.68;98172.97;4996671;28;20195;-62
2022/08/05 10:14:26;;;;;;;3.13;2.92;;;;;;;32.19;32.18;98177.66;4996324;28;20179;-62
2022/08/05 10:16:56;;;;;;;4.93;2.35;;;;;;;32.19;32.41;98166.13;4996383;28;20179;-62
2022/08/05 10:19:25;;;;;;;2.53;2.33;;;;;;;32.19;32.13;98155.41;4996469;28;20175;-62
2022/08/05 10:21:51;;;;;;;2.95;2.17;;;;;;;32.23;32.68;98161.91;4996193;28;20175;-62
2022/08/05 10:24:17;;;;;;;3.55;2.55;;;;;;;32.24;31.85;98153.63;4996407;28;20190;-62
2022/08/05 10:26:44;;;;;;;3.90;2.50;;;;;;;32.29;31.97;98156.38;4996322;28;20206;-62
2022/08/05 10:29:10;;;;;;;5.47;2.35;;;;;;;32.27;33.10;98145.09;4996030;28;20187;-62
2022/08/05 10:31:38;;;;;;;2.63;2.28;;;;;;;32.50;33.46;98142.16;4995948;28;20207;-62
2022/08/05 10:34:06;;;;;;;6.55;2.67;;;;;;;32.67;32.42;98137.53;4996161;28;20296;-62
2022/08/05 10:36:32;;;;;;;4.30;2.63;;;;;;;32.86;31.97;98146.06;4996213;28;20189;-63
2022/08/05 10:39:05;;;;;;;3.60;2.33;;;;;;;32.92;31.09;98145.03;4995869;28;20171;-62
2022/08/05 10:41:36;;;;;;;2.30;2.05;;;;;;;32.83;31.40;98136.69;4995984;28;20152;-63
2022/08/05 10:44:11;;;;;;;3.67;2.65;;;;;;;32.89;31.16;98138.34;4995886;28;20164;-62
2022/08/05 10:46:49;;;;;;;3.10;2.45;;;;;;;33.09;31.64;98143.06;4996037;28;20617;-62
2022/08/05 10:49:15;;;;;;;2.92;2.70;;;;;;;33.23;31.66;98141.59;4995596;28;20177;-63
2022/08/05 10:51:45;;;;;;;4.53;2.72;;;;;;;33.50;31.40;98143.19;4995824;28;20198;-62
2022/08/05 10:54:10;;;;;;;6.25;2.92;;;;;;;33.69;30.98;98141.69;4995613;28;20559;-62
2022/08/05 10:56:56;;;;;;;5.07;2.67;;;;;;;34.00;29.86;98148.94;4995499;28;20171;-62
2022/08/05 10:59:29;;;;;;;7.07;3.17;;;;;;;34.26;29.53;98148.00;4995214;28;20680;-63
2022/08/05 11:02:08;;;;;;;3.63;2.75;;;;;;;34.48;29.76;98145.13;4995415;28;20163;-64
2022/08/05 11:04:44;;;;;;;4.82;2.60;;;;;;;34.68;29.29;98156.75;4995345;28;20191;-63
2022/08/05 11:07:14;;;;;;;3.40;2.80;;;;;;;34.68;29.17;98150.56;4995042;28;20167;-64
2022/08/05 11:09:49;;;;;;;3.15;2.70;;;;;;;34.81;30.05;98150.91;4995371;28;20612;-63
2022/08/05 11:12:33;;;;;;;3.10;2.90;;;;;;;34.55;29.23;98137.66;4995453;28;20210;-64
2022/08/05 11:15:06;;;;;;;3.67;2.58;;;;;;;34.86;29.40;98133.97;5010228;28;20599;-64
2022/08/05 11:17:37;;;;;;;3.33;3.00;;;;;;;35.11;29.00;98144.75;4995430;28;20171;-64
2022/08/05 11:20:04;;;;;;;2.92;2.75;;;;;;;35.38;28.32;98138.06;4995126;28;20641;-62
2022/08/05 11:22:50;;;;;;;2.97;2.55;;;;;;;35.47;26.97;98133.78;4995337;28;20258;-62
2022/08/05 11:25:37;;;;;;;2.97;2.78;;;;;;;35.53;27.57;98124.59;4995262;28;20186;-62
2022/08/05 11:28:08;;;;;;;5.40;3.05;;;;;;;35.69;26.93;98122.69;4995077;28;20179;-62
2022/08/05 11:30:56;;;;;;;4.80;2.58;;;;;;;35.66;26.98;98125.94;4994985;28;20167;-62
2022/08/05 11:33:25;;;;;;;5.63;2.92;;;;;;;35.62;28.11;98128.34;5009717;28;20215;-62
2022/08/05 11:35:55;;;;;;;3.25;2.78;;;;;;;35.85;28.11;98118.94;4994825;28;20676;-62
2022/08/05 11:38:41;;;;;;;3.05;2.85;;;;;;;36.06;27.55;98123.97;4994805;28;20170;-61
2022/08/05 11:41:17;;;;;;;5.88;2.55;;;;;;;35.99;27.98;98118.06;4995031;28;20159;-62